sensor_id;sensor_type;location;lat;lon;timestamp;pressure;altitude;pressure_sealevel;temperature
71630;BMP280;59479;51.902;8.212;2022-10-16T00:00:30;100548.06;;;16.22
71630;BMP280;59479;51.902;8.212;2022-10-16T00:02:56;100548.91;;;16.19
71630;BMP280;59479;51.902;8.212;2022-10-16T00:05:21;100544.72;;;16.18
71630;BMP280;59479;51.902;8.212;2022-10-16T00:07:46;100538.69;;;16.24
71630;BMP280;59479;51.902;8.212;2022-10-16T00:10:12;100539.63;;;16.21
71630;BMP280;59479;51.902;8.212;2022-10-16T00:12:37;100537.97;;;16.17
71630;BMP280;59479;51.902;8.212;2022-10-16T00:15:02;100537.16;;;16.17
71630;BMP280;59479;51.902;8.212;2022-10-16T00:17:30;100535.44;;;16.17
71630;BMP280;59479;51.902;8.212;2022-10-16T00:19:55;100554.88;;;16.18
71630;BMP280;59479;51.902;8.212;2022-10-16T00:22:21;100562.44;;;16.21
71630;BMP280;59479;51.902;8.212;2022-10-16T00:24:47;100547.25;;;16.18
71630;BMP280;59479;51.902;8.212;2022-10-16T00:27:12;100547.38;;;16.12
71630;BMP280;59479;51.902;8.212;2022-10-16T00:29:38;100555.88;;;16.11
71630;BMP280;59479;51.902;8.212;2022-10-16T00:32:03;100556.75;;;16.10
71630;BMP280;59479;51.902;8.212;2022-10-16T00:34:28;100550.84;;;16.10
71630;BMP280;59479;51.902;8.212;2022-10-16T00:36:54;100547.66;;;16.02
71630;BMP280;59479;51.902;8.212;2022-10-16T00:39:19;100545.91;;;16.04
71630;BMP280;59479;51.902;8.212;2022-10-16T00:41:44;100551.78;;;16.04
71630;BMP280;59479;51.902;8.212;2022-10-16T00:44:45;100556.00;;;16.05
71630;BMP280;59479;51.902;8.212;2022-10-16T00:47:15;100559.41;;;16.04
71630;BMP280;59479;51.902;8.212;2022-10-16T00:49:42;100554.25;;;16.07
71630;BMP280;59479;51.902;8.212;2022-10-16T00:52:09;100544.19;;;16.04
71630;BMP280;59479;51.902;8.212;2022-10-16T00:54:35;100557.88;;;15.97
71630;BMP280;59479;51.902;8.212;2022-10-16T00:57:03;100556.22;;;15.97
71630;BMP280;59479;51.902;8.212;2022-10-16T00:59:35;100553.69;;;15.97
71630;BMP280;59479;51.902;8.212;2022-10-16T01:02:02;100549.41;;;15.98
71630;BMP280;59479;51.902;8.212;2022-10-16T01:04:32;100557.06;;;15.97
71630;BMP280;59479;51.902;8.212;2022-10-16T01:12:46;100556.34;;;15.91
71630;BMP280;59479;51.902;8.212;2022-10-16T01:17:48;100561.53;;;15.86
71630;BMP280;59479;51.902;8.212;2022-10-16T01:20:33;100560.59;;;15.90
71630;BMP280;59479;51.902;8.212;2022-10-16T01:28:19;100572.75;;;15.76
71630;BMP280;59479;51.902;8.212;2022-10-16T01:30:46;100576.81;;;15.83
71630;BMP280;59479;51.902;8.212;2022-10-16T01:33:17;100578.44;;;15.86
71630;BMP280;59479;51.902;8.212;2022-10-16T01:35:59;100584.31;;;15.86
71630;BMP280;59479;51.902;8.212;2022-10-16T01:38:30;100579.34;;;15.83
71630;BMP280;59479;51.902;8.212;2022-10-16T01:41:01;100572.50;;;15.87
71630;BMP280;59479;51.902;8.212;2022-10-16T01:43:31;100580.13;;;15.87
71630;BMP280;59479;51.902;8.212;2022-10-16T01:45:59;100581.84;;;15.85
71630;BMP280;59479;51.902;8.212;2022-10-16T01:48:25;100570.84;;;15.86
71630;BMP280;59479;51.902;8.212;2022-10-16T01:50:57;100574.19;;;15.86
71630;BMP280;59479;51.902;8.212;2022-10-16T01:53:25;100571.66;;;15.86
71630;BMP280;59479;51.902;8.212;2022-10-16T01:55:52;100573.38;;;15.86
71630;BMP280;59479;51.902;8.212;2022-10-16T01:58:19;100574.41;;;15.77
71630;BMP280;59479;51.902;8.212;2022-10-16T02:00:46;100576.97;;;15.76
71630;BMP280;59479;51.902;8.212;2022-10-16T02:03:14;100574.56;;;15.71
71630;BMP280;59479;51.902;8.212;2022-10-16T02:06:01;100578.69;;;15.74
71630;BMP280;59479;51.902;8.212;2022-10-16T02:08:29;100572.75;;;15.76
71630;BMP280;59479;51.902;8.212;2022-10-16T02:10:56;100578.66;;;15.77
71630;BMP280;59479;51.902;8.212;2022-10-16T02:16:01;100577.13;;;15.70
71630;BMP280;59479;51.902;8.212;2022-10-16T02:18:26;100583.88;;;15.68
71630;BMP280;59479;51.902;8.212;2022-10-16T02:23:29;100578.91;;;15.65
71630;BMP280;59479;51.902;8.212;2022-10-16T02:25:58;100571.28;;;15.66
71630;BMP280;59479;51.902;8.212;2022-10-16T02:28:28;100579.66;;;15.70
71630;BMP280;59479;51.902;8.212;2022-10-16T02:31:00;100582.25;;;15.67
71630;BMP280;59479;51.902;8.212;2022-10-16T02:33:27;100584.75;;;15.68
71630;BMP280;59479;51.902;8.212;2022-10-16T02:35:55;100589.09;;;15.62
71630;BMP280;59479;51.902;8.212;2022-10-16T02:38:21;100581.56;;;15.59
71630;BMP280;59479;51.902;8.212;2022-10-16T02:40:47;100576.47;;;15.60
71630;BMP280;59479;51.902;8.212;2022-10-16T02:43:12;100580.75;;;15.57
71630;BMP280;59479;51.902;8.212;2022-10-16T02:45:38;100591.69;;;15.59
71630;BMP280;59479;51.902;8.212;2022-10-16T02:48:03;100585.78;;;15.60
71630;BMP280;59479;51.902;8.212;2022-10-16T02:50:28;100587.31;;;15.67
71630;BMP280;59479;51.902;8.212;2022-10-16T02:52:54;100589.00;;;15.66
71630;BMP280;59479;51.902;8.212;2022-10-16T02:55:19;100583.97;;;15.65
71630;BMP280;59479;51.902;8.212;2022-10-16T02:57:44;100593.50;;;15.53
71630;BMP280;59479;51.902;8.212;2022-10-16T03:00:12;100591.00;;;15.51
71630;BMP280;59479;51.902;8.212;2022-10-16T03:02:38;100595.22;;;15.52
71630;BMP280;59479;51.902;8.212;2022-10-16T03:05:04;100599.50;;;15.50
71630;BMP280;59479;51.902;8.212;2022-10-16T03:07:29;100592.75;;;15.49
71630;BMP280;59479;51.902;8.212;2022-10-16T03:09:55;100591.00;;;15.51
71630;BMP280;59479;51.902;8.212;2022-10-16T03:12:21;100598.78;;;15.44
71630;BMP280;59479;51.902;8.212;2022-10-16T03:14:46;100596.22;;;15.45
71630;BMP280;59479;51.902;8.212;2022-10-16T03:17:12;100594.38;;;15.53
71630;BMP280;59479;51.902;8.212;2022-10-16T03:19:38;100591.88;;;15.52
71630;BMP280;59479;51.902;8.212;2022-10-16T03:22:03;100590.25;;;15.46
71630;BMP280;59479;51.902;8.212;2022-10-16T03:24:28;100579.09;;;15.54
71630;BMP280;59479;51.902;8.212;2022-10-16T03:26:54;100582.66;;;15.46
71630;BMP280;59479;51.902;8.212;2022-10-16T03:29:19;100588.47;;;15.51
71630;BMP280;59479;51.902;8.212;2022-10-16T03:31:44;100596.22;;;15.45
71630;BMP280;59479;51.902;8.212;2022-10-16T03:34:10;100589.47;;;15.44
71630;BMP280;59479;51.902;8.212;2022-10-16T03:36:35;100590.44;;;15.39
71630;BMP280;59479;51.902;8.212;2022-10-16T03:39:03;100587.88;;;15.40
71630;BMP280;59479;51.902;8.212;2022-10-16T03:41:28;100592.91;;;15.42
71630;BMP280;59479;51.902;8.212;2022-10-16T03:43:53;100599.59;;;15.44
71630;BMP280;59479;51.902;8.212;2022-10-16T03:46:19;100601.25;;;15.47
71630;BMP280;59479;51.902;8.212;2022-10-16T03:48:44;100607.94;;;15.49
71630;BMP280;59479;51.902;8.212;2022-10-16T03:51:09;100603.06;;;15.40
71630;BMP280;59479;51.902;8.212;2022-10-16T03:53:35;100599.66;;;15.41
71630;BMP280;59479;51.902;8.212;2022-10-16T03:56:00;100590.22;;;15.49
71630;BMP280;59479;51.902;8.212;2022-10-16T03:58:25;100587.00;;;15.41
71630;BMP280;59479;51.902;8.212;2022-10-16T04:00:51;100597.88;;;15.46
71630;BMP280;59479;51.902;8.212;2022-10-16T04:03:16;100588.69;;;15.41
71630;BMP280;59479;51.902;8.212;2022-10-16T04:05:42;100590.44;;;15.39
71630;BMP280;59479;51.902;8.212;2022-10-16T04:08:07;100586.13;;;15.42
71630;BMP280;59479;51.902;8.212;2022-10-16T04:10:33;100587.94;;;15.37
71630;BMP280;59479;51.902;8.212;2022-10-16T04:12:58;100592.00;;;15.44
71630;BMP280;59479;51.902;8.212;2022-10-16T04:15:24;100590.41;;;15.40
71630;BMP280;59479;51.902;8.212;2022-10-16T04:17:50;100585.25;;;15.45
71630;BMP280;59479;51.902;8.212;2022-10-16T04:20:16;100613.91;;;15.47
71630;BMP280;59479;51.902;8.212;2022-10-16T04:22:41;100611.34;;;15.48
71630;BMP280;59479;51.902;8.212;2022-10-16T04:25:07;100603.81;;;15.45
71630;BMP280;59479;51.902;8.212;2022-10-16T04:27:32;100618.88;;;15.51
71630;BMP280;59479;51.902;8.212;2022-10-16T04:29:58;100618.22;;;15.43
71630;BMP280;59479;51.902;8.212;2022-10-16T04:32:24;100625.63;;;15.52
71630;BMP280;59479;51.902;8.212;2022-10-16T04:34:49;100619.69;;;15.53
71630;BMP280;59479;51.902;8.212;2022-10-16T04:37:15;100623.13;;;15.49
71630;BMP280;59479;51.902;8.212;2022-10-16T04:39:40;100618.13;;;15.46
71630;BMP280;59479;51.902;8.212;2022-10-16T04:42:05;100622.25;;;15.52
71630;BMP280;59479;51.902;8.212;2022-10-16T04:44:31;100628.84;;;15.60
71630;BMP280;59479;51.902;8.212;2022-10-16T04:46:56;100644.03;;;15.60
71630;BMP280;59479;51.902;8.212;2022-10-16T04:49:21;100640.56;;;15.64
71630;BMP280;59479;51.902;8.212;2022-10-16T04:51:47;100643.09;;;15.64
71630;BMP280;59479;51.902;8.212;2022-10-16T04:54:12;100647.44;;;15.59
71630;BMP280;59479;51.902;8.212;2022-10-16T04:56:37;100641.56;;;15.57
71630;BMP280;59479;51.902;8.212;2022-10-16T04:59:11;100650.00;;;15.56
71630;BMP280;59479;51.902;8.212;2022-10-16T05:01:36;100643.25;;;15.58
71630;BMP280;59479;51.902;8.212;2022-10-16T05:04:01;100650.00;;;15.56
71630;BMP280;59479;51.902;8.212;2022-10-16T05:06:27;100652.53;;;15.56
71630;BMP280;59479;51.902;8.212;2022-10-16T05:08:52;100649.19;;;15.55
71630;BMP280;59479;51.902;8.212;2022-10-16T05:11:17;100653.38;;;15.58
71630;BMP280;59479;51.902;8.212;2022-10-16T05:13:43;100642.44;;;15.54
71630;BMP280;59479;51.902;8.212;2022-10-16T05:16:08;100651.66;;;15.58
71630;BMP280;59479;51.902;8.212;2022-10-16T05:18:33;100664.34;;;15.58
71630;BMP280;59479;51.902;8.212;2022-10-16T05:20:59;100667.81;;;15.53
71630;BMP280;59479;51.902;8.212;2022-10-16T05:23:24;100665.34;;;15.50
71630;BMP280;59479;51.902;8.212;2022-10-16T05:25:56;100666.16;;;15.51
71630;BMP280;59479;51.902;8.212;2022-10-16T05:28:29;100651.88;;;15.48
71630;BMP280;59479;51.902;8.212;2022-10-16T05:30:55;100672.16;;;15.48
71630;BMP280;59479;51.902;8.212;2022-10-16T05:33:21;100672.91;;;15.53
71630;BMP280;59479;51.902;8.212;2022-10-16T05:35:47;100661.38;;;15.37
71630;BMP280;59479;51.902;8.212;2022-10-16T05:38:13;100663.19;;;15.31
71630;BMP280;59479;51.902;8.212;2022-10-16T05:40:38;100672.25;;;15.42
71630;BMP280;59479;51.902;8.212;2022-10-16T05:43:03;100677.25;;;15.47
71630;BMP280;59479;51.902;8.212;2022-10-16T05:45:29;100681.44;;;15.46
71630;BMP280;59479;51.902;8.212;2022-10-16T05:47:54;100683.19;;;15.44
71630;BMP280;59479;51.902;8.212;2022-10-16T05:50:19;100693.50;;;15.35
71630;BMP280;59479;51.902;8.212;2022-10-16T05:52:45;100696.81;;;15.39
71630;BMP280;59479;51.902;8.212;2022-10-16T05:55:10;100689.97;;;15.42
71630;BMP280;59479;51.902;8.212;2022-10-16T05:57:35;100699.25;;;15.43
71630;BMP280;59479;51.902;8.212;2022-10-16T06:00:01;100701.78;;;15.45
71630;BMP280;59479;51.902;8.212;2022-10-16T06:02:26;100704.41;;;15.37
71630;BMP280;59479;51.902;8.212;2022-10-16T06:04:52;100715.28;;;15.44
71630;BMP280;59479;51.902;8.212;2022-10-16T06:07:19;100710.22;;;15.44
71630;BMP280;59479;51.902;8.212;2022-10-16T06:09:48;100709.56;;;15.33
71630;BMP280;59479;51.902;8.212;2022-10-16T06:12:13;100723.06;;;15.33
71630;BMP280;59479;51.902;8.212;2022-10-16T06:14:38;100719.75;;;15.31
71630;BMP280;59479;51.902;8.212;2022-10-16T06:17:04;100712.03;;;15.36
71630;BMP280;59479;51.902;8.212;2022-10-16T06:19:29;100703.66;;;15.32
71630;BMP280;59479;51.902;8.212;2022-10-16T06:21:54;100718.00;;;15.33
71630;BMP280;59479;51.902;8.212;2022-10-16T06:24:20;100719.66;;;15.34
71630;BMP280;59479;51.902;8.212;2022-10-16T06:26:45;100716.22;;;15.38
71630;BMP280;59479;51.902;8.212;2022-10-16T06:29:10;100717.03;;;15.40
71630;BMP280;59479;51.902;8.212;2022-10-16T06:31:36;100726.47;;;15.32
71630;BMP280;59479;51.902;8.212;2022-10-16T06:34:01;100731.66;;;15.26
71630;BMP280;59479;51.902;8.212;2022-10-16T06:36:27;100736.63;;;15.29
71630;BMP280;59479;51.902;8.212;2022-10-16T06:38:53;100740.06;;;15.27
71630;BMP280;59479;51.902;8.212;2022-10-16T06:41:20;100746.72;;;15.32
71630;BMP280;59479;51.902;8.212;2022-10-16T06:43:46;100742.56;;;15.30
71630;BMP280;59479;51.902;8.212;2022-10-16T06:46:13;100739.13;;;15.31
71630;BMP280;59479;51.902;8.212;2022-10-16T06:48:39;100763.72;;;15.24
71630;BMP280;59479;51.902;8.212;2022-10-16T06:51:08;100758.56;;;15.30
71630;BMP280;59479;51.902;8.212;2022-10-16T06:53:35;100764.47;;;15.31
71630;BMP280;59479;51.902;8.212;2022-10-16T06:56:16;100772.00;;;15.35
71630;BMP280;59479;51.902;8.212;2022-10-16T06:58:42;100772.22;;;15.22
71630;BMP280;59479;51.902;8.212;2022-10-16T07:01:08;100778.84;;;15.30
71630;BMP280;59479;51.902;8.212;2022-10-16T07:03:36;100782.31;;;15.25
71630;BMP280;59479;51.902;8.212;2022-10-16T07:06:04;100775.53;;;15.27
71630;BMP280;59479;51.902;8.212;2022-10-16T07:08:33;100777.16;;;15.29
71630;BMP280;59479;51.902;8.212;2022-10-16T07:11:00;100791.31;;;15.41
71630;BMP280;59479;51.902;8.212;2022-10-16T07:13:25;100786.44;;;15.30
71630;BMP280;59479;51.902;8.212;2022-10-16T07:15:51;100795.59;;;15.37
71630;BMP280;59479;51.902;8.212;2022-10-16T07:18:16;100796.41;;;15.38
71630;BMP280;59479;51.902;8.212;2022-10-16T07:20:41;100801.41;;;15.42
71630;BMP280;59479;51.902;8.212;2022-10-16T07:23:06;100808.16;;;15.43
71630;BMP280;59479;51.902;8.212;2022-10-16T07:25:32;100814.81;;;15.49
71630;BMP280;59479;51.902;8.212;2022-10-16T07:27:57;100814.03;;;15.45
71630;BMP280;59479;51.902;8.212;2022-10-16T07:30:23;100816.63;;;15.42
71630;BMP280;59479;51.902;8.212;2022-10-16T07:32:48;100825.81;;;15.46
71630;BMP280;59479;51.902;8.212;2022-10-16T07:35:13;100830.84;;;15.49
71630;BMP280;59479;51.902;8.212;2022-10-16T07:37:39;100835.88;;;15.51
71630;BMP280;59479;51.902;8.212;2022-10-16T07:40:05;100840.78;;;15.59
71630;BMP280;59479;51.902;8.212;2022-10-16T07:42:30;100845.91;;;15.58
71630;BMP280;59479;51.902;8.212;2022-10-16T07:44:55;100859.44;;;15.57
71630;BMP280;59479;51.902;8.212;2022-10-16T07:47:21;100863.72;;;15.54
71630;BMP280;59479;51.902;8.212;2022-10-16T07:49:46;100864.50;;;15.57
71630;BMP280;59479;51.902;8.212;2022-10-16T07:52:11;100867.78;;;15.62
71630;BMP280;59479;51.902;8.212;2022-10-16T07:54:37;100873.63;;;15.67
71630;BMP280;59479;51.902;8.212;2022-10-16T07:57:02;100872.84;;;15.62
71630;BMP280;59479;51.902;8.212;2022-10-16T07:59:27;100873.66;;;15.64
71630;BMP280;59479;51.902;8.212;2022-10-16T08:01:53;100870.28;;;15.65
71630;BMP280;59479;51.902;8.212;2022-10-16T08:04:18;100871.06;;;15.68
71630;BMP280;59479;51.902;8.212;2022-10-16T08:06:43;100869.34;;;15.69
71630;BMP280;59479;51.902;8.212;2022-10-16T08:09:09;100877.03;;;15.64
71630;BMP280;59479;51.902;8.212;2022-10-16T08:11:34;100878.53;;;15.74
71630;BMP280;59479;51.902;8.212;2022-10-16T08:14:00;100877.69;;;15.77
71630;BMP280;59479;51.902;8.212;2022-10-16T08:16:25;100883.59;;;15.76
71630;BMP280;59479;51.902;8.212;2022-10-16T08:18:50;100880.13;;;15.81
71630;BMP280;59479;51.902;8.212;2022-10-16T08:21:18;100895.25;;;15.86
71630;BMP280;59479;51.902;8.212;2022-10-16T08:23:44;100890.09;;;15.90
71630;BMP280;59479;51.902;8.212;2022-10-16T08:26:10;100896.06;;;15.86
71630;BMP280;59479;51.902;8.212;2022-10-16T08:28:36;100896.03;;;15.89
71630;BMP280;59479;51.902;8.212;2022-10-16T08:31:09;100897.69;;;15.92
71630;BMP280;59479;51.902;8.212;2022-10-16T08:33:36;100903.53;;;15.97
71630;BMP280;59479;51.902;8.212;2022-10-16T08:36:03;100911.16;;;15.94
71630;BMP280;59479;51.902;8.212;2022-10-16T08:38:29;100907.88;;;15.89
71630;BMP280;59479;51.902;8.212;2022-10-16T08:41:09;100913.91;;;15.82
71630;BMP280;59479;51.902;8.212;2022-10-16T08:43:47;100916.03;;;16.05
71630;BMP280;59479;51.902;8.212;2022-10-16T08:49:11;100933.84;;;16.01
71630;BMP280;59479;51.902;8.212;2022-10-16T08:51:38;100929.56;;;16.04
71630;BMP280;59479;51.902;8.212;2022-10-16T08:54:37;100951.44;;;16.11
71630;BMP280;59479;51.902;8.212;2022-10-16T08:57:11;100948.13;;;16.08
71630;BMP280;59479;51.902;8.212;2022-10-16T08:59:36;100949.59;;;16.18
71630;BMP280;59479;51.902;8.212;2022-10-16T09:02:02;100957.88;;;16.30
71630;BMP280;59479;51.902;8.212;2022-10-16T09:04:45;100953.59;;;16.32
71630;BMP280;59479;51.902;8.212;2022-10-16T09:07:46;100955.91;;;16.44
71630;BMP280;59479;51.902;8.212;2022-10-16T09:10:33;100961.25;;;16.29
71630;BMP280;59479;51.902;8.212;2022-10-16T09:13:22;100960.13;;;16.46
71630;BMP280;59479;51.902;8.212;2022-10-16T09:18:39;100961.97;;;16.37
71630;BMP280;59479;51.902;8.212;2022-10-16T09:21:30;100972.00;;;16.44
71630;BMP280;59479;51.902;8.212;2022-10-16T09:24:12;100968.41;;;16.54
71630;BMP280;59479;51.902;8.212;2022-10-16T09:26:38;100975.06;;;16.61
71630;BMP280;59479;51.902;8.212;2022-10-16T09:29:03;100977.63;;;16.60
71630;BMP280;59479;51.902;8.212;2022-10-16T09:31:29;100979.09;;;16.71
71630;BMP280;59479;51.902;8.212;2022-10-16T09:34:02;100981.66;;;16.70
71630;BMP280;59479;51.902;8.212;2022-10-16T09:36:39;100976.38;;;16.80
71630;BMP280;59479;51.902;8.212;2022-10-16T09:39:08;100978.88;;;16.82
71630;BMP280;59479;51.902;8.212;2022-10-16T09:41:37;100980.78;;;16.71
71630;BMP280;59479;51.902;8.212;2022-10-16T09:44:04;100976.38;;;16.79
71630;BMP280;59479;51.902;8.212;2022-10-16T09:46:33;100987.34;;;16.81
71630;BMP280;59479;51.902;8.212;2022-10-16T09:51:37;100984.75;;;16.83
71630;BMP280;59479;51.902;8.212;2022-10-16T09:56:35;100982.97;;;16.88
71630;BMP280;59479;51.902;8.212;2022-10-16T09:59:21;100988.69;;;16.98
71630;BMP280;59479;51.902;8.212;2022-10-16T10:01:51;100996.09;;;17.08
71630;BMP280;59479;51.902;8.212;2022-10-16T10:04:18;101003.09;;;16.97
71630;BMP280;59479;51.902;8.212;2022-10-16T10:06:52;101003.13;;;16.94
71630;BMP280;59479;51.902;8.212;2022-10-16T10:09:34;101003.00;;;17.02
71630;BMP280;59479;51.902;8.212;2022-10-16T10:12:04;101013.25;;;16.96
71630;BMP280;59479;51.902;8.212;2022-10-16T10:14:42;101010.72;;;16.96
71630;BMP280;59479;51.902;8.212;2022-10-16T10:17:13;101010.63;;;17.02
71630;BMP280;59479;51.902;8.212;2022-10-16T10:19:49;101007.00;;;17.13
71630;BMP280;59479;51.902;8.212;2022-10-16T10:22:22;101007.03;;;17.12
71630;BMP280;59479;51.902;8.212;2022-10-16T10:25:01;101017.22;;;17.10
71630;BMP280;59479;51.902;8.212;2022-10-16T10:30:26;101009.84;;;17.39
71630;BMP280;59479;51.902;8.212;2022-10-16T10:41:34;101016.41;;;17.49
71630;BMP280;59479;51.902;8.212;2022-10-16T10:47:03;101009.59;;;17.49
71630;BMP280;59479;51.902;8.212;2022-10-16T10:49:45;101017.97;;;17.54
71630;BMP280;59479;51.902;8.212;2022-10-16T10:55:10;101027.97;;;17.62
71630;BMP280;59479;51.902;8.212;2022-10-16T11:05:46;101018.28;;;17.78
71630;BMP280;59479;51.902;8.212;2022-10-16T11:08:19;101034.41;;;17.76
71630;BMP280;59479;51.902;8.212;2022-10-16T11:10:57;101030.22;;;17.75
71630;BMP280;59479;51.902;8.212;2022-10-16T11:13:53;101037.88;;;17.73
71630;BMP280;59479;51.902;8.212;2022-10-16T11:16:34;101035.28;;;17.76
71630;BMP280;59479;51.902;8.212;2022-10-16T11:19:28;101042.91;;;17.76
71630;BMP280;59479;51.902;8.212;2022-10-16T11:25:02;101033.34;;;17.86
71630;BMP280;59479;51.902;8.212;2022-10-16T11:27:36;101034.25;;;17.83
71630;BMP280;59479;51.902;8.212;2022-10-16T11:30:16;101036.75;;;17.86
71630;BMP280;59479;51.902;8.212;2022-10-16T11:32:49;101047.00;;;17.82
71630;BMP280;59479;51.902;8.212;2022-10-16T11:35:21;101041.69;;;17.91
71630;BMP280;59479;51.902;8.212;2022-10-16T11:37:49;101042.47;;;17.94
71630;BMP280;59479;51.902;8.212;2022-10-16T11:40:22;101035.63;;;17.98
71630;BMP280;59479;51.902;8.212;2022-10-16T11:42:54;101044.13;;;17.95
71630;BMP280;59479;51.902;8.212;2022-10-16T11:45:39;101045.50;;;18.11
71630;BMP280;59479;51.902;8.212;2022-10-16T11:48:12;101045.53;;;18.08
71630;BMP280;59479;51.902;8.212;2022-10-16T11:55:58;101038.50;;;18.19
71630;BMP280;59479;51.902;8.212;2022-10-16T11:58:30;101044.50;;;18.16
71630;BMP280;59479;51.902;8.212;2022-10-16T12:01:30;101051.09;;;18.25
71630;BMP280;59479;51.902;8.212;2022-10-16T12:04:05;101045.91;;;18.29
71630;BMP280;59479;51.902;8.212;2022-10-16T12:06:39;101043.22;;;18.34
71630;BMP280;59479;51.902;8.212;2022-10-16T12:09:13;101048.16;;;18.40
71630;BMP280;59479;51.902;8.212;2022-10-16T12:11:40;101051.56;;;18.39
71630;BMP280;59479;51.902;8.212;2022-10-16T12:16:59;101055.94;;;18.34
71630;BMP280;59479;51.902;8.212;2022-10-16T12:19:28;101061.06;;;18.32
71630;BMP280;59479;51.902;8.212;2022-10-16T12:21:59;101063.59;;;18.32
71630;BMP280;59479;51.902;8.212;2022-10-16T12:24:33;101053.25;;;18.40
71630;BMP280;59479;51.902;8.212;2022-10-16T12:26:59;101050.78;;;18.37
71630;BMP280;59479;51.902;8.212;2022-10-16T12:32:04;101059.00;;;18.48
71630;BMP280;59479;51.902;8.212;2022-10-16T12:34:37;101055.41;;;18.54
71630;BMP280;59479;51.902;8.212;2022-10-16T12:37:14;101068.34;;;18.46
71630;BMP280;59479;51.902;8.212;2022-10-16T12:39:40;101066.63;;;18.48
71630;BMP280;59479;51.902;8.212;2022-10-16T12:44:50;101062.78;;;18.65
71630;BMP280;59479;51.902;8.212;2022-10-16T12:49:57;101071.88;;;18.73
71630;BMP280;59479;51.902;8.212;2022-10-16T12:54:59;101069.47;;;18.67
71630;BMP280;59479;51.902;8.212;2022-10-16T13:16:46;101092.63;;;18.92
71630;BMP280;59479;51.902;8.212;2022-10-16T13:19:53;101089.88;;;18.99
71630;BMP280;59479;51.902;8.212;2022-10-16T13:22:42;101098.53;;;18.92
71630;BMP280;59479;51.902;8.212;2022-10-16T13:28:03;101087.16;;;19.06
71630;BMP280;59479;51.902;8.212;2022-10-16T13:30:41;101096.69;;;18.97
71630;BMP280;59479;51.902;8.212;2022-10-16T13:33:14;101103.78;;;18.88
71630;BMP280;59479;51.902;8.212;2022-10-16T13:35:50;101101.09;;;18.92
71630;BMP280;59479;51.902;8.212;2022-10-16T13:38:18;101106.19;;;18.92
71630;BMP280;59479;51.902;8.212;2022-10-16T13:40:53;101096.66;;;19.00
71630;BMP280;59479;51.902;8.212;2022-10-16T13:43:21;101097.31;;;19.08
71630;BMP280;59479;51.902;8.212;2022-10-16T13:46:02;101090.22;;;19.17
71630;BMP280;59479;51.902;8.212;2022-10-16T13:48:28;101101.31;;;19.16
71630;BMP280;59479;51.902;8.212;2022-10-16T13:53:33;101103.91;;;19.15
71630;BMP280;59479;51.902;8.212;2022-10-16T13:55:59;101107.31;;;19.14
71630;BMP280;59479;51.902;8.212;2022-10-16T13:58:25;101103.91;;;19.15
71630;BMP280;59479;51.902;8.212;2022-10-16T14:01:05;101095.47;;;19.13
71630;BMP280;59479;51.902;8.212;2022-10-16T14:03:32;101106.97;;;19.26
71630;BMP280;59479;51.902;8.212;2022-10-16T14:06:00;101119.09;;;19.18
71630;BMP280;59479;51.902;8.212;2022-10-16T14:08:27;101113.06;;;19.20
71630;BMP280;59479;51.902;8.212;2022-10-16T14:10:56;101125.94;;;19.16
71630;BMP280;59479;51.902;8.212;2022-10-16T14:13:29;101123.78;;;19.33
71630;BMP280;59479;51.902;8.212;2022-10-16T14:15:55;101127.94;;;19.35
71630;BMP280;59479;51.902;8.212;2022-10-16T14:18:25;101125.44;;;19.34
71630;BMP280;59479;51.902;8.212;2022-10-16T14:20:51;101121.09;;;19.37
71630;BMP280;59479;51.902;8.212;2022-10-16T14:23:28;101119.28;;;19.40
71630;BMP280;59479;51.902;8.212;2022-10-16T14:26:06;101116.66;;;19.43
71630;BMP280;59479;51.902;8.212;2022-10-16T14:28:32;101118.34;;;19.44
71630;BMP280;59479;51.902;8.212;2022-10-16T14:30:59;101121.75;;;19.43
71630;BMP280;59479;51.902;8.212;2022-10-16T14:33:33;101124.94;;;19.51
71630;BMP280;59479;51.902;8.212;2022-10-16T14:38:27;101113.59;;;19.61
71630;BMP280;59479;51.902;8.212;2022-10-16T14:40:56;101105.25;;;19.56
71630;BMP280;59479;51.902;8.212;2022-10-16T14:43:29;101110.88;;;19.66
71630;BMP280;59479;51.902;8.212;2022-10-16T14:45:56;101118.50;;;19.67
71630;BMP280;59479;51.902;8.212;2022-10-16T14:48:22;101105.66;;;19.70
71630;BMP280;59479;51.902;8.212;2022-10-16T14:50:48;101109.84;;;19.73
71630;BMP280;59479;51.902;8.212;2022-10-16T14:53:14;101107.16;;;19.77
71630;BMP280;59479;51.902;8.212;2022-10-16T14:55:40;101107.03;;;19.81
71630;BMP280;59479;51.902;8.212;2022-10-16T14:58:13;101106.97;;;19.83
71630;BMP280;59479;51.902;8.212;2022-10-16T15:00:39;101118.91;;;19.82
71630;BMP280;59479;51.902;8.212;2022-10-16T15:03:05;101120.66;;;19.80
71630;BMP280;59479;51.902;8.212;2022-10-16T15:05:30;101119.88;;;19.78
71630;BMP280;59479;51.902;8.212;2022-10-16T15:07:57;101132.50;;;19.83
71630;BMP280;59479;51.902;8.212;2022-10-16T15:10:26;101129.25;;;19.78
71630;BMP280;59479;51.902;8.212;2022-10-16T15:12:52;101135.16;;;19.78
71630;BMP280;59479;51.902;8.212;2022-10-16T15:17:55;101130.16;;;19.76
71630;BMP280;59479;51.902;8.212;2022-10-16T15:20:26;101129.25;;;19.78
71630;BMP280;59479;51.902;8.212;2022-10-16T15:22:51;101130.81;;;19.82
71630;BMP280;59479;51.902;8.212;2022-10-16T15:27:54;101141.91;;;19.81
71630;BMP280;59479;51.902;8.212;2022-10-16T15:30:20;101141.78;;;19.85
71630;BMP280;59479;51.902;8.212;2022-10-16T15:32:45;101137.53;;;19.86
71630;BMP280;59479;51.902;8.212;2022-10-16T15:35:10;101140.16;;;19.83
71630;BMP280;59479;51.902;8.212;2022-10-16T15:37:36;101129.06;;;19.84
71630;BMP280;59479;51.902;8.212;2022-10-16T15:40:01;101121.50;;;19.81
71630;BMP280;59479;51.902;8.212;2022-10-16T15:42:27;101124.88;;;19.81
71630;BMP280;59479;51.902;8.212;2022-10-16T15:44:52;101121.50;;;19.81
71630;BMP280;59479;51.902;8.212;2022-10-16T15:47:17;101120.69;;;19.79
71630;BMP280;59479;51.902;8.212;2022-10-16T15:49:43;101122.41;;;19.78
71630;BMP280;59479;51.902;8.212;2022-10-16T15:52:08;101119.19;;;19.72
71630;BMP280;59479;51.902;8.212;2022-10-16T15:54:33;101124.47;;;19.68